Time;durP1;ratioP1;P1;durP2;ratioP2;P2;SDS_P1;SDS_P2;PMS_P1;PMS_P2;Temp;Humidity;BMP_temperature;BMP_pressure;BME280_temperature;BME280_humidity;BME280_pressure;Samples;Min_cycle;Max_cycle;Signal;HPM_P1;HPM_P2
2022/09/22 00:01:05;;;;;;;8.73;6.35;;;;;;;8.76;86.73;102448.78;5047529;28;20491;-74
2022/09/22 00:03:32;;;;;;;9.35;5.70;;;;;;;8.76;86.98;102453.97;5047178;28;20056;-73
2022/09/22 00:06:19;;;;;;;7.85;5.07;;;;;;;8.85;86.78;102456.13;5040377;28;20197;-74
2022/09/22 00:08:48;;;;;;;9.07;6.72;;;;;;;8.63;87.06;102458.06;5040794;28;20389;-73
2022/09/22 00:11:27;;;;;;;8.20;5.40;;;;;;;8.80;86.29;102449.50;5049071;28;20021;-73
2022/09/22 00:14:08;;;;;;;7.97;5.65;;;;;;;8.73;87.25;102459.28;5048764;28;20492;-73
2022/09/22 00:16:38;;;;;;;9.93;5.03;;;;;;;8.73;87.09;102448.94;5030966;28;20021;-73
2022/09/22 00:19:13;;;;;;;8.57;6.65;;;;;;;8.58;87.47;102449.66;5047210;28;20037;-74
2022/09/22 00:21:39;;;;;;;9.52;5.40;;;;;;;8.60;87.23;102442.66;5047411;28;20104;-73
2022/09/22 00:24:08;;;;;;;7.72;6.70;;;;;;;8.43;87.34;102449.50;5042353;28;20144;-74
2022/09/22 00:26:34;;;;;;;9.43;5.32;;;;;;;8.58;87.37;102445.34;5048035;28;20052;-75
2022/09/22 00:29:01;;;;;;;8.55;7.18;;;;;;;8.34;87.96;102447.28;5048903;28;20051;-73
2022/09/22 00:31:27;;;;;;;9.65;7.13;;;;;;;8.32;88.27;102428.44;5046804;28;20167;-73
2022/09/22 00:33:54;;;;;;;9.73;5.78;;;;;;;8.42;87.77;102439.19;5047127;28;20029;-74
2022/09/22 00:36:22;;;;;;;8.52;6.75;;;;;;;8.46;88.28;102446.75;5046552;28;20453;-73
2022/09/22 00:38:50;;;;;;;11.18;7.32;;;;;;;8.54;88.72;102442.94;5048095;28;20043;-74
2022/09/22 00:41:27;;;;;;;9.20;5.00;;;;;;;8.66;88.35;102442.38;5034841;28;20029;-74
2022/09/22 00:44:14;;;;;;;9.02;5.00;;;;;;;8.70;87.46;102443.91;5030985;28;20068;-73
2022/09/22 00:46:43;;;;;;;8.73;5.25;;;;;;;8.67;87.70;102441.47;5034634;28;20033;-74
2022/09/22 00:49:11;;;;;;;7.93;6.40;;;;;;;8.51;87.53;102439.63;5042642;28;20532;-73
2022/09/22 00:51:40;;;;;;;8.38;5.72;;;;;;;8.60;87.71;102432.31;5040934;28;20032;-73
2022/09/22 00:54:08;;;;;;;7.28;4.78;;;;;;;8.67;87.49;102423.38;5039391;28;20056;-73
2022/09/22 00:56:42;;;;;;;9.52;5.38;;;;;;;8.72;88.21;102434.34;5041207;28;20484;-73
2022/09/22 00:59:13;;;;;;;7.95;4.82;;;;;;;8.76;87.65;102433.25;5045208;28;20400;-73
2022/09/22 01:01:39;;;;;;;7.43;4.93;;;;;;;8.71;87.76;102419.72;5042259;28;20017;-73
2022/09/22 01:04:05;;;;;;;7.07;4.70;;;;;;;8.71;87.68;102415.38;5042292;28;20029;-73
2022/09/22 01:06:33;;;;;;;9.20;4.90;;;;;;;8.72;87.49;102421.41;5043785;28;20529;-74
2022/09/22 01:09:05;;;;;;;9.25;5.45;;;;;;;8.69;87.51;102421.53;5039785;28;20083;-73
2022/09/22 01:11:32;;;;;;;8.05;5.05;;;;;;;8.73;87.45;102417.91;5037508;28;20053;-74
2022/09/22 01:14:27;;;;;;;9.50;6.20;;;;;;;8.60;88.05;102416.81;5042549;28;20028;-73
2022/09/22 01:17:59;;;;;;;8.52;5.15;;;;;;;8.75;87.14;102405.72;5045605;28;20083;-73
2022/09/22 01:20:57;;;;;;;6.28;4.20;;;;;;;8.72;87.11;102403.31;5029190;28;20032;-73
2022/09/22 01:23:41;;;;;;;9.10;5.00;;;;;;;8.69;86.59;102400.84;5040998;28;20063;-74
2022/09/22 01:26:09;;;;;;;9.43;6.47;;;;;;;8.41;87.47;102397.00;5043320;28;20069;-76
2022/09/22 01:29:02;;;;;;;6.78;4.50;;;;;;;8.59;87.21;102402.19;5041730;28;20072;-73
2022/09/22 01:31:47;;;;;;;7.90;6.00;;;;;;;8.43;87.84;102396.91;5042435;28;20091;-74
2022/09/22 01:34:42;;;;;;;8.32;5.25;;;;;;;8.49;88.04;102400.06;5030292;28;20036;-74
2022/09/22 01:37:24;;;;;;;8.38;6.05;;;;;;;8.23;88.13;102387.50;5032119;28;20817;-73
2022/09/22 01:40:04;;;;;;;6.97;4.70;;;;;;;8.41;88.02;102402.16;5037029;28;20056;-73
2022/09/22 01:42:43;;;;;;;7.07;4.20;;;;;;;8.37;87.90;102392.03;5042366;28;20036;-73
2022/09/22 01:45:25;;;;;;;7.90;4.45;;;;;;;8.35;87.98;102392.09;5043981;28;20112;-74
2022/09/22 01:47:57;;;;;;;9.65;4.50;;;;;;;8.31;88.06;102390.53;5045343;28;20049;-73
2022/09/22 01:50:29;;;;;;;8.85;5.00;;;;;;;8.24;88.35;102384.00;5046984;28;20403;-73
2022/09/22 01:53:00;;;;;;;8.07;4.63;;;;;;;8.16;88.06;102375.78;5043422;28;20056;-74
2022/09/22 01:55:41;;;;;;;6.65;4.40;;;;;;;8.18;88.13;102379.94;5040352;28;20024;-74
2022/09/22 01:58:13;;;;;;;8.20;5.07;;;;;;;8.16;87.87;102380.94;5038116;28;20029;-73
2022/09/22 02:00:44;;;;;;;7.18;4.70;;;;;;;8.16;88.08;102380.94;5039181;28;20104;-73
2022/09/22 02:03:17;;;;;;;8.30;4.78;;;;;;;8.15;87.99;102374.09;5041227;28;20028;-74
2022/09/22 02:05:52;;;;;;;7.55;4.85;;;;;;;8.10;88.60;102371.72;5040795;28;20060;-73
2022/09/22 02:08:32;;;;;;;8.60;5.97;;;;;;;7.90;88.83;102370.03;5040770;28;20116;-74
2022/09/22 02:11:06;;;;;;;7.70;4.40;;;;;;;8.06;88.27;102359.00;5040652;28;20020;-74
2022/09/22 02:13:32;;;;;;;7.78;6.10;;;;;;;7.86;88.81;102365.94;5045734;28;20036;-73
2022/09/22 02:16:00;;;;;;;7.47;4.40;;;;;;;8.04;88.64;102366.00;5046652;28;20042;-74
2022/09/22 02:18:38;;;;;;;8.07;4.43;;;;;;;8.06;88.35;102359.00;5034424;28;20032;-74
2022/09/22 02:21:04;;;;;;;7.60;4.70;;;;;;;7.94;89.01;102345.75;5037532;28;20063;-74
2022/09/22 02:23:31;;;;;;;7.63;4.13;;;;;;;8.01;88.72;102360.97;5040550;28;20025;-73
2022/09/22 02:25:58;;;;;;;8.25;5.38;;;;;;;7.88;89.24;102353.78;5034660;28;20092;-74
2022/09/22 02:28:24;;;;;;;7.43;4.38;;;;;;;8.02;88.64;102349.72;5035070;28;20028;-74
2022/09/22 02:30:52;;;;;;;8.82;6.35;;;;;;;7.90;89.12;102346.78;5045313;28;20083;-73
2022/09/22 02:33:22;;;;;;;6.28;4.20;;;;;;;8.08;89.05;102352.00;5034940;28;20025;-75
2022/09/22 02:35:54;;;;;;;6.63;4.18;;;;;;;8.06;88.47;102334.00;5031814;28;20438;-73
2022/09/22 02:38:26;;;;;;;6.13;4.13;;;;;;;8.13;88.56;102339.72;5045878;28;20025;-74
2022/09/22 02:41:09;;;;;;;9.77;4.63;;;;;;;8.15;88.60;102340.50;5028584;28;20511;-76
2022/09/22 02:44:00;;;;;;;7.68;4.47;;;;;;;8.15;88.77;102343.09;5043282;28;20102;-73
2022/09/22 02:47:07;;;;;;;6.93;4.47;;;;;;;8.18;88.48;102340.34;5033590;28;20079;-76
2022/09/22 02:49:33;;;;;;;8.95;6.10;;;;;;;8.03;88.38;102341.06;5041986;28;20110;-73
2022/09/22 02:51:59;;;;;;;8.13;4.38;;;;;;;8.16;88.29;102344.75;5037717;28;20032;-74
2022/09/22 02:54:24;;;;;;;7.38;4.32;;;;;;;8.11;88.45;102331.22;5036024;28;20032;-74
2022/09/22 02:56:50;;;;;;;9.30;4.35;;;;;;;8.07;88.47;102329.66;5028512;28;20031;-73
2022/09/22 02:59:15;;;;;;;6.60;4.35;;;;;;;8.02;88.25;102331.63;5045632;28;20405;-76
2022/09/22 03:01:41;;;;;;;8.18;4.32;;;;;;;7.98;88.75;102313.72;5027093;28;20029;-74
2022/09/22 03:04:06;;;;;;;6.90;4.13;;;;;;;8.04;88.55;102335.00;5046222;28;20071;-73
2022/09/22 03:06:32;;;;;;;7.72;6.05;;;;;;;7.84;88.79;102323.81;5046629;28;20027;-75
2022/09/22 03:08:57;;;;;;;7.18;5.90;;;;;;;7.84;89.26;102329.00;5038464;28;20036;-73
2022/09/22 03:11:25;;;;;;;9.45;4.40;;;;;;;7.96;89.63;102320.66;5041920;28;20116;-75
2022/09/22 03:13:50;;;;;;;9.35;4.55;;;;;;;7.99;89.67;102323.13;5044676;28;20021;-73
2022/09/22 03:16:16;;;;;;;8.55;4.65;;;;;;;7.99;88.92;102320.53;5040458;28;20029;-74
2022/09/22 03:18:41;;;;;;;6.85;4.53;;;;;;;7.95;89.28;102316.41;5041511;28;20032;-73
2022/09/22 03:21:06;;;;;;;6.32;4.40;;;;;;;7.96;89.08;102312.91;5044669;28;20136;-73
2022/09/22 03:23:32;;;;;;;6.80;4.60;;;;;;;8.03;89.21;102328.13;5041408;28;20027;-73
2022/09/22 03:25:57;;;;;;;8.57;4.72;;;;;;;7.95;88.66;102316.41;5044836;28;20037;-73
2022/09/22 03:28:23;;;;;;;7.95;4.35;;;;;;;7.97;88.82;102309.44;5043658;28;20488;-73
2022/09/22 03:30:48;;;;;;;8.73;5.13;;;;;;;7.92;89.52;102321.75;5043268;28;20024;-74
2022/09/22 03:33:14;;;;;;;6.80;4.57;;;;;;;7.93;89.01;102323.41;5039721;28;20099;-73
2022/09/22 03:35:40;;;;;;;7.45;4.60;;;;;;;7.94;89.13;102314.75;5027634;28;20032;-73
2022/09/22 03:38:05;;;;;;;9.30;4.57;;;;;;;7.93;89.08;102314.81;5046228;28;20047;-73
2022/09/22 03:40:30;;;;;;;8.57;5.28;;;;;;;7.91;89.48;102314.91;5041850;28;20514;-74
2022/09/22 03:42:56;;;;;;;6.35;4.60;;;;;;;7.93;89.05;102317.41;5035104;28;20040;-74
2022/09/22 03:45:22;;;;;;;11.45;5.40;;;;;;;7.87;89.66;102308.19;5025105;28;20568;-73
2022/09/22 03:47:47;;;;;;;6.63;4.60;;;;;;;7.91;89.68;102314.91;5027765;28;20033;-77
2022/09/22 03:50:13;;;;;;;6.90;4.05;;;;;;;7.91;88.98;102303.72;5028132;28;20029;-75
2022/09/22 03:52:40;;;;;;;8.73;4.97;;;;;;;7.84;88.82;102318.66;5033304;28;20024;-73
2022/09/22 03:55:06;;;;;;;6.38;4.20;;;;;;;7.87;89.34;102322.88;5021913;28;20024;-73
2022/09/22 03:57:32;;;;;;;7.43;4.78;;;;;;;7.87;88.86;102318.53;5034651;28;20036;-74
2022/09/22 03:59:57;;;;;;;10.18;4.82;;;;;;;7.78;88.84;102311.19;5039550;28;20024;-73
2022/09/22 04:02:22;;;;;;;6.50;3.88;;;;;;;7.86;89.46;102311.69;5038501;28;20629;-75
2022/09/22 04:04:48;;;;;;;5.43;4.03;;;;;;;7.78;88.84;102303.44;5026087;28;20399;-73
2022/09/22 04:07:13;;;;;;;6.10;3.83;;;;;;;7.69;88.65;102288.41;5032888;28;20021;-74
2022/09/22 04:09:40;;;;;;;7.55;5.90;;;;;;;7.50;89.18;102308.19;5031584;28;20140;-75
2022/09/22 04:12:07;;;;;;;7.50;4.05;;;;;;;7.66;89.38;102304.00;5032410;28;20337;-74
2022/09/22 04:14:33;;;;;;;6.38;4.05;;;;;;;7.64;88.46;102300.69;5033219;28;20475;-73
2022/09/22 04:16:58;;;;;;;6.10;4.30;;;;;;;7.57;89.30;102300.13;5038065;28;20160;-73
2022/09/22 04:19:23;;;;;;;6.10;3.95;;;;;;;7.52;89.04;102285.75;5041857;28;20033;-75
2022/09/22 04:21:49;;;;;;;8.52;5.38;;;;;;;7.40;89.27;102293.13;5034120;28;20029;-74
2022/09/22 04:24:15;;;;;;;7.43;4.82;;;;;;;7.47;89.19;102291.09;5014083;28;20095;-74
2022/09/22 04:26:42;;;;;;;8.20;4.68;;;;;;;7.43;89.58;102290.41;5020298;28;20075;-73
2022/09/22 04:29:07;;;;;;;8.38;5.45;;;;;;;7.38;89.89;102282.03;5045933;28;20032;-74
2022/09/22 04:31:33;;;;;;;7.40;4.68;;;;;;;7.40;89.68;102287.97;5036813;28;20449;-73
2022/09/22 04:33:58;;;;;;;7.38;4.60;;;;;;;7.42;89.43;102293.88;5041253;28;20531;-73
2022/09/22 04:36:23;;;;;;;7.57;4.55;;;;;;;7.40;89.08;102292.31;5041920;28;20108;-72
2022/09/22 04:38:49;;;;;;;6.40;4.50;;;;;;;7.33;88.69;102283.97;5032666;28;20036;-72
2022/09/22 04:41:14;;;;;;;6.55;4.28;;;;;;;7.33;89.42;102286.53;5031407;28;20037;-72
2022/09/22 04:43:40;;;;;;;8.73;4.95;;;;;;;7.31;89.67;102288.38;5037116;28;20037;-72
2022/09/22 04:46:06;;;;;;;7.93;5.50;;;;;;;7.16;89.94;102283.88;5044980;28;20460;-72
2022/09/22 04:48:31;;;;;;;7.50;5.18;;;;;;;7.24;90.02;102294.72;5030200;28;20036;-72
2022/09/22 04:50:56;;;;;;;7.85;5.07;;;;;;;7.18;89.97;102282.09;5039340;28;20491;-71
2022/09/22 04:53:22;;;;;;;7.28;4.57;;;;;;;7.21;89.20;102291.41;5043347;28;20040;-72
2022/09/22 04:55:50;;;;;;;7.22;4.60;;;;;;;7.21;89.20;102287.09;5041699;28;20143;-72
2022/09/22 04:58:16;;;;;;;8.23;4.45;;;;;;;7.22;89.47;102288.75;5041999;28;20037;-72
2022/09/22 05:00:41;;;;;;;7.38;4.75;;;;;;;7.17;90.02;102286.41;5048101;28;20051;-72
2022/09/22 05:03:08;;;;;;;8.45;4.53;;;;;;;7.22;89.52;102286.19;5048110;28;20032;-72
2022/09/22 05:05:34;;;;;;;8.27;5.10;;;;;;;7.24;90.21;102292.13;5047443;28;20067;-72
2022/09/22 05:08:00;;;;;;;7.00;4.00;;;;;;;7.26;89.53;102298.06;5045571;28;20400;-71
2022/09/22 05:10:29;;;;;;;6.28;4.35;;;;;;;7.24;90.35;102294.72;5033639;28;20045;-72
2022/09/22 05:12:55;;;;;;;8.20;5.22;;;;;;;7.25;90.19;102293.81;5041466;28;20037;-73
2022/09/22 05:15:21;;;;;;;7.80;5.13;;;;;;;7.21;90.14;102292.25;5033632;28;20211;-72
2022/09/22 05:17:48;;;;;;;6.38;4.78;;;;;;;7.26;90.00;102300.63;5036699;28;20547;-74
2022/09/22 05:20:14;;;;;;;7.97;5.25;;;;;;;7.22;90.30;102293.94;5044937;28;20032;-75
2022/09/22 05:22:40;;;;;;;9.70;5.20;;;;;;;7.26;90.01;102305.78;5023783;28;20311;-73
2022/09/22 05:25:11;;;;;;;7.28;5.97;;;;;;;7.11;91.07;102296.13;5040868;28;20049;-77
2022/09/22 05:27:42;;;;;;;6.43;3.97;;;;;;;7.22;90.61;102299.09;5040583;28;20039;-73
2022/09/22 05:30:08;;;;;;;8.68;4.80;;;;;;;7.22;89.87;102299.09;5045216;28;20472;-72
2022/09/22 05:32:33;;;;;;;6.60;4.57;;;;;;;7.23;90.47;102305.13;5043432;28;20065;-72
2022/09/22 05:34:59;;;;;;;9.07;5.13;;;;;;;7.13;89.83;102299.50;5041150;28;20465;-73
2022/09/22 05:37:24;;;;;;;7.68;5.13;;;;;;;7.14;90.24;102301.19;5021530;28;20029;-73
2022/09/22 05:39:49;;;;;;;9.27;5.18;;;;;;;7.11;90.18;102301.28;5043641;28;20098;-73
2022/09/22 05:42:15;;;;;;;8.45;5.85;;;;;;;7.13;90.56;102302.09;5033988;28;20060;-73
2022/09/22 05:44:40;;;;;;;9.07;5.70;;;;;;;7.07;90.84;102292.03;5030780;28;20480;-73
2022/09/22 05:47:05;;;;;;;8.27;5.22;;;;;;;7.12;90.96;102308.16;5033488;28;20373;-72
2022/09/22 05:49:31;;;;;;;8.82;5.90;;;;;;;7.13;90.31;102299.50;5031863;28;20041;-73
2022/09/22 05:51:57;;;;;;;10.25;6.85;;;;;;;6.99;90.58;102291.50;5033635;28;20067;-73
2022/09/22 05:54:23;;;;;;;8.63;5.72;;;;;;;7.12;90.46;102303.00;5038465;28;20029;-75
2022/09/22 05:56:49;;;;;;;9.32;5.97;;;;;;;7.14;90.38;102306.34;5034873;28;20025;-72
2022/09/22 05:59:15;;;;;;;9.52;6.80;;;;;;;7.12;90.55;102298.66;5035610;28;20021;-73
2022/09/22 06:01:41;;;;;;;7.85;5.55;;;;;;;7.21;90.99;102297.41;5038431;28;20116;-72
2022/09/22 06:04:06;;;;;;;11.30;6.07;;;;;;;7.26;90.65;102308.38;5023124;28;20079;-75
2022/09/22 06:06:32;;;;;;;9.57;6.18;;;;;;;7.30;90.79;102307.34;5027036;28;20359;-72
2022/09/22 06:08:57;;;;;;;11.65;7.13;;;;;;;7.32;91.25;102304.69;5028554;28;20484;-72
2022/09/22 06:11:22;;;;;;;10.25;6.90;;;;;;;7.34;91.22;102303.72;5029135;28;20041;-72
2022/09/22 06:13:52;;;;;;;9.88;7.40;;;;;;;7.34;90.89;102298.56;5041369;28;20028;-71
2022/09/22 06:16:18;;;;;;;11.48;7.60;;;;;;;7.45;90.72;102306.69;5040670;28;20040;-73
2022/09/22 06:18:46;;;;;;;12.23;7.90;;;;;;;7.51;91.11;102312.44;5043581;28;20033;-72
2022/09/22 06:21:12;;;;;;;13.45;10.07;;;;;;;7.54;90.82;102304.56;5036142;28;20931;-76
2022/09/22 06:23:38;;;;;;;12.45;9.25;;;;;;;7.55;90.32;102295.91;5032295;28;20753;-72
2022/09/22 06:26:04;;;;;;;15.68;14.07;;;;;;;7.57;90.75;102304.41;5036243;28;20076;-72
2022/09/22 06:28:29;;;;;;;14.80;10.55;;;;;;;7.61;89.78;102298.22;5046152;28;20417;-72
2022/09/22 06:30:57;;;;;;;14.73;9.45;;;;;;;7.64;89.21;102296.34;5044997;28;20033;-73
2022/09/22 06:33:22;;;;;;;14.30;10.25;;;;;;;7.62;89.06;102286.97;5030681;28;20388;-72
2022/09/22 06:35:48;;;;;;;12.50;10.07;;;;;;;7.71;89.33;102304.66;5032058;28;20013;-73
2022/09/22 06:38:14;;;;;;;13.93;10.88;;;;;;;7.71;89.41;102308.06;5028146;28;20021;-71
2022/09/22 06:40:43;;;;;;;14.15;12.27;;;;;;;7.73;88.96;102303.66;5028902;28;20377;-72
2022/09/22 06:43:21;;;;;;;17.45;10.20;;;;;;;7.77;89.21;102301.78;5008691;28;20078;-72
2022/09/22 06:45:50;;;;;;;13.68;10.00;;;;;;;7.81;89.00;102298.16;5027793;28;20108;-72
2022/09/22 06:48:17;;;;;;;13.40;11.70;;;;;;;7.82;89.01;102294.66;5030404;28;20029;-75
2022/09/22 06:50:50;;;;;;;15.15;13.63;;;;;;;7.81;89.24;102303.31;5037628;28;20029;-72
2022/09/22 06:53:17;;;;;;;14.65;11.55;;;;;;;7.87;89.53;102303.03;5045576;28;20024;-72
2022/09/22 06:55:43;;;;;;;15.77;11.75;;;;;;;7.93;89.34;102305.31;5033028;28;20061;-73
2022/09/22 06:58:10;;;;;;;15.00;10.05;;;;;;;7.99;89.30;102305.03;5036922;28;20222;-73
2022/09/22 07:00:36;;;;;;;15.20;12.65;;;;;;;8.05;89.27;102310.84;5027743;28;20459;-75
2022/09/22 07:03:25;;;;;;;16.20;12.93;;;;;;;8.11;88.98;102310.53;5046056;28;20025;-72
2022/09/22 07:05:56;;;;;;;17.85;16.20;;;;;;;8.08;89.04;102305.50;5034721;28;20028;-72
2022/09/22 07:08:22;;;;;;;17.08;13.75;;;;;;;8.17;89.35;102302.50;5038749;28;20021;-72
2022/09/22 07:10:56;;;;;;;17.48;15.60;;;;;;;8.16;89.23;102304.25;5039899;28;20057;-72
2022/09/22 07:13:26;;;;;;;14.25;12.02;;;;;;;8.23;89.64;102304.78;5031028;28;20079;-72
2022/09/22 07:15:51;;;;;;;15.00;12.45;;;;;;;8.30;89.35;102302.72;5043944;28;20021;-73
2022/09/22 07:18:17;;;;;;;19.27;13.10;;;;;;;8.29;89.24;102293.31;5042677;28;20025;-72
2022/09/22 07:20:45;;;;;;;17.73;15.88;;;;;;;8.38;89.71;102298.91;5045447;28;20052;-74
2022/09/22 07:23:17;;;;;;;16.58;13.07;;;;;;;8.49;89.46;102301.81;5043897;28;20039;-72
2022/09/22 07:25:55;;;;;;;14.85;11.52;;;;;;;8.56;89.32;102301.50;5036433;28;20053;-77
2022/09/22 07:28:22;;;;;;;18.80;13.63;;;;;;;8.60;89.28;102298.69;5032461;28;20044;-72
2022/09/22 07:30:48;;;;;;;15.73;13.07;;;;;;;8.65;89.49;102294.09;5035210;28;20530;-73
2022/09/22 07:33:13;;;;;;;16.77;14.55;;;;;;;8.74;89.47;102290.22;5031344;28;20021;-73
2022/09/22 07:35:39;;;;;;;19.17;14.35;;;;;;;8.84;89.75;102299.22;5024142;28;20021;-74
2022/09/22 07:38:05;;;;;;;17.40;15.60;;;;;;;8.89;89.56;102294.66;5031615;28;20360;-74
2022/09/22 07:40:31;;;;;;;19.52;15.45;;;;;;;9.00;89.88;102297.53;5034388;28;20091;-74
2022/09/22 07:42:56;;;;;;;17.83;14.75;;;;;;;9.13;90.14;102291.72;5034686;28;20112;-74
2022/09/22 07:45:22;;;;;;;16.65;14.90;;;;;;;9.20;89.94;102287.88;5027247;28;20025;-73
2022/09/22 07:50:32;;;;;;;18.05;16.13;;;;;;;9.42;89.19;102287.59;5047857;28;20052;-73
2022/09/22 07:52:57;;;;;;;18.38;15.90;;;;;;;9.44;89.50;102281.38;5040998;28;20025;-74
2022/09/22 07:55:23;;;;;;;16.67;14.45;;;;;;;9.61;89.76;102292.59;5039093;28;20340;-73
2022/09/22 07:58:07;;;;;;;18.45;16.38;;;;;;;9.72;89.59;102290.28;5047740;28;20033;-74
2022/09/22 08:00:33;;;;;;;18.23;15.60;;;;;;;9.78;88.67;102289.94;5037420;28;20028;-73
2022/09/22 08:03:00;;;;;;;18.83;16.88;;;;;;;9.88;88.97;102280.75;5027200;28;20071;-74
2022/09/22 08:05:26;;;;;;;19.70;16.15;;;;;;;9.99;87.90;102293.94;5032866;28;20021;-74
2022/09/22 08:07:57;;;;;;;19.48;15.80;;;;;;;10.13;87.52;102284.53;5031735;28;20025;-73
2022/09/22 08:10:22;;;;;;;18.30;15.65;;;;;;;10.19;87.45;102284.19;5032062;28;20029;-73
2022/09/22 08:12:52;;;;;;;18.85;17.05;;;;;;;10.34;87.20;102278.19;5033171;28;20127;-74
2022/09/22 08:15:21;;;;;;;19.50;17.17;;;;;;;10.44;86.83;102278.50;5032078;28;20025;-73
2022/09/22 08:17:46;;;;;;;18.63;16.85;;;;;;;10.55;86.10;102276.94;5028946;28;20029;-74
2022/09/22 08:20:12;;;;;;;17.58;15.90;;;;;;;10.62;85.30;102278.25;5037091;28;20028;-74
2022/09/22 08:22:37;;;;;;;19.35;15.13;;;;;;;10.74;85.62;102286.25;5034028;28;20043;-74
2022/09/22 08:25:03;;;;;;;18.55;15.57;;;;;;;10.82;85.35;102268.44;5030978;28;20049;-74
2022/09/22 08:27:29;;;;;;;17.10;15.05;;;;;;;10.96;84.77;102275.44;5032676;28;20036;-76
2022/09/22 08:29:54;;;;;;;19.45;17.45;;;;;;;10.95;84.51;102266.78;5029928;28;20380;-73
2022/09/22 08:32:20;;;;;;;19.30;17.13;;;;;;;11.15;84.10;102276.81;5031992;28;20021;-73
2022/09/22 08:34:45;;;;;;;17.38;14.40;;;;;;;11.26;84.14;102277.91;5035933;28;20273;-74
2022/09/22 08:37:12;;;;;;;18.60;16.73;;;;;;;11.36;83.71;102273.84;5033003;28;20021;-73
2022/09/22 08:39:38;;;;;;;18.10;16.40;;;;;;;11.48;83.52;102278.25;5033783;28;20032;-73
2022/09/22 08:42:17;;;;;;;19.98;17.95;;;;;;;11.58;82.57;102273.31;5033187;28;20473;-73
2022/09/22 08:45:17;;;;;;;18.55;16.73;;;;;;;11.74;82.47;102273.19;5031402;28;20041;-74
2022/09/22 08:53:36;;;;;;;17.45;15.75;;;;;;;11.91;79.72;102275.56;5033117;28;20115;-73
2022/09/22 08:56:28;;;;;;;18.35;15.73;;;;;;;12.11;80.80;102276.91;5038299;28;20017;-73
2022/09/22 08:59:06;;;;;;;18.67;16.70;;;;;;;12.13;79.95;102265.47;5045657;28;20033;-73
2022/09/22 09:01:50;;;;;;;17.05;15.45;;;;;;;12.28;78.61;102268.00;5030263;28;20559;-74
2022/09/22 09:04:52;;;;;;;17.92;16.02;;;;;;;12.36;78.29;102273.53;5042930;28;20037;-73
2022/09/22 09:07:56;;;;;;;19.48;17.48;;;;;;;12.56;79.22;102278.25;5045796;28;20039;-74
2022/09/22 09:10:37;;;;;;;16.80;15.10;;;;;;;12.57;77.61;102274.72;5046308;28;20520;-74
2022/09/22 09:13:14;;;;;;;18.73;16.55;;;;;;;12.72;77.82;102278.88;5046402;28;20033;-73
2022/09/22 09:16:13;;;;;;;17.73;15.93;;;;;;;12.87;77.16;102276.19;5035803;28;20030;-75
2022/09/22 09:18:44;;;;;;;17.83;16.13;;;;;;;12.94;77.17;102262.63;5033063;28;20488;-74
2022/09/22 09:21:13;;;;;;;18.63;16.42;;;;;;;13.05;76.18;102271.47;5044366;28;20425;-74
2022/09/22 09:23:51;;;;;;;18.33;16.30;;;;;;;13.07;75.72;102275.63;5034157;28;20117;-74
2022/09/22 09:26:19;;;;;;;19.60;17.20;;;;;;;13.22;75.54;102272.00;5040458;28;20049;-74
2022/09/22 09:28:57;;;;;;;17.55;15.35;;;;;;;13.29;75.58;102272.41;5041846;28;20053;-75
2022/09/22 09:31:54;;;;;;;17.83;16.05;;;;;;;13.39;74.81;102283.03;5035706;28;20029;-74
2022/09/22 09:34:27;;;;;;;17.08;15.45;;;;;;;13.42;74.51;102264.53;5018720;28;20091;-74
2022/09/22 09:37:12;;;;;;;17.52;15.82;;;;;;;13.57;74.89;102273.06;5045307;28;20025;-74
2022/09/22 09:39:40;;;;;;;14.90;13.40;;;;;;;13.68;71.42;102263.53;5039088;28;20029;-73
2022/09/22 09:42:27;;;;;;;13.88;12.38;;;;;;;13.74;72.73;102263.09;5035492;28;20017;-74
2022/09/22 09:44:56;;;;;;;15.70;14.05;;;;;;;13.89;70.91;102271.59;5037644;28;20102;-73
2022/09/22 09:47:31;;;;;;;14.75;13.35;;;;;;;14.06;71.21;102263.38;5022510;28;20033;-74
2022/09/22 09:49:56;;;;;;;14.32;12.82;;;;;;;14.13;70.63;102258.53;5038017;28;20103;-74
2022/09/22 09:52:25;;;;;;;12.93;11.55;;;;;;;14.23;69.36;102267.34;5031203;28;20473;-74
2022/09/22 09:54:52;;;;;;;14.63;13.13;;;;;;;14.30;70.07;102265.94;5040319;28;20112;-75
2022/09/22 09:57:19;;;;;;;14.43;12.93;;;;;;;14.48;68.47;102268.16;5043710;28;20094;-74
2022/09/22 10:02:34;;;;;;;14.13;12.18;;;;;;;14.66;68.76;102260.72;5036492;28;20043;-74
2022/09/22 10:05:00;;;;;;;;;;;;;;;14.69;71.70;102261.31;5046337;28;20029;-73
2022/09/22 10:07:29;;;;;;;13.57;11.80;;;;;;;14.64;67.72;102242.56;5039392;28;19935;-74
2022/09/22 10:10:34;;;;;;;13.75;12.30;;;;;;;14.83;69.39;102252.41;5038722;28;20436;-74
2022/09/22 10:13:02;;;;;;;12.40;10.55;;;;;;;14.91;66.50;102259.66;5028421;28;20401;-74
2022/09/22 10:15:29;;;;;;;11.40;9.38;;;;;;;15.13;65.54;102257.88;5040317;28;20033;-74
2022/09/22 10:17:54;;;;;;;12.48;8.75;;;;;;;15.22;64.83;102261.56;5039965;28;20134;-74
2022/09/22 10:20:25;;;;;;;11.13;8.80;;;;;;;15.40;63.34;102262.72;5044126;28;20532;-74
2022/09/22 10:22:52;;;;;;;10.93;8.30;;;;;;;15.46;62.89;102255.34;5031768;28;20029;-74
2022/09/22 10:25:21;;;;;;;10.48;8.10;;;;;;;15.59;62.55;102256.03;5041695;28;20041;-74
2022/09/22 10:28:11;;;;;;;8.90;7.15;;;;;;;15.68;64.19;102250.09;5040560;28;20060;-75
2022/09/22 10:30:38;;;;;;;9.85;6.60;;;;;;;15.78;60.71;102245.78;5038282;28;20021;-74
2022/09/22 10:33:18;;;;;;;8.32;5.80;;;;;;;15.80;62.03;102238.63;5041507;28;20032;-74
2022/09/22 10:36:05;;;;;;;8.02;4.78;;;;;;;16.01;58.57;102241.28;5040154;28;20032;-76
2022/09/22 10:38:37;;;;;;;7.35;4.80;;;;;;;16.07;59.18;102229.50;5039826;28;20512;-74
2022/09/22 10:41:10;;;;;;;6.18;4.40;;;;;;;16.20;56.65;102230.13;5042981;28;20067;-74
2022/09/22 10:43:59;;;;;;;4.78;3.58;;;;;;;16.37;58.36;102232.16;5043035;28;20522;-74
2022/09/22 10:46:59;;;;;;;5.43;3.38;;;;;;;16.43;57.22;102231.66;5027702;28;20060;-74
2022/09/22 10:49:34;;;;;;;5.20;3.55;;;;;;;16.38;53.30;102222.53;5029935;28;20138;-73
2022/09/22 10:52:25;;;;;;;5.97;4.13;;;;;;;16.53;57.14;102221.25;5045764;28;20111;-74
2022/09/22 10:55:08;;;;;;;7.07;3.80;;;;;;;16.55;55.52;102218.47;5037861;28;20469;-74
2022/09/22 10:57:51;;;;;;;5.45;4.10;;;;;;;16.41;56.00;102223.09;5030576;28;20033;-74
2022/09/22 11:00:20;;;;;;;6.88;4.57;;;;;;;16.54;55.97;102219.44;5022481;28;20033;-74
2022/09/22 11:03:27;;;;;;;6.05;4.40;;;;;;;16.71;56.23;102218.88;5040233;28;20060;-73
2022/09/22 11:12:43;;;;;;;6.38;4.60;;;;;;;17.06;54.94;102209.75;5029600;28;20047;-73
2022/09/22 11:15:24;;;;;;;6.78;4.32;;;;;;;17.21;51.52;102200.56;4982600;28;20065;-74
2022/09/22 11:18:12;;;;;;;5.78;4.60;;;;;;;17.25;54.21;102207.16;4987281;28;20030;-77
2022/09/22 11:21:24;;;;;;;5.57;4.55;;;;;;;17.13;54.98;102197.75;4986667;28;20037;-74
2022/09/22 11:24:05;;;;;;;8.48;5.70;;;;;;;17.08;55.53;102215.69;4973448;28;20042;-74
2022/09/22 11:26:39;;;;;;;7.28;4.90;;;;;;;17.29;53.64;102203.31;4984716;28;20161;-75
2022/09/22 11:29:19;;;;;;;7.00;4.70;;;;;;;17.33;52.12;102199.47;4983458;28;20065;-74
2022/09/22 11:31:47;;;;;;;7.40;5.60;;;;;;;17.37;51.33;102195.59;4983944;28;20078;-75
2022/09/22 11:34:18;;;;;;;6.75;5.07;;;;;;;17.25;51.35;102191.44;4981478;28;20034;-75
2022/09/22 11:36:52;;;;;;;8.43;6.00;;;;;;;17.20;52.44;102185.78;4983163;28;20073;-75
2022/09/22 11:39:23;;;;;;;8.10;5.45;;;;;;;17.38;51.95;102189.41;4979995;28;20038;-75
2022/09/22 11:41:55;;;;;;;7.05;5.53;;;;;;;17.71;51.92;102192.59;4978189;28;20042;-75
2022/09/22 11:44:35;;;;;;;7.88;5.53;;;;;;;17.85;52.63;102184.34;4982177;28;20049;-75
2022/09/22 11:47:28;;;;;;;8.23;4.82;;;;;;;17.88;50.70;102177.97;4980604;28;20038;-74
2022/09/22 11:50:11;;;;;;;7.40;4.00;;;;;;;17.91;49.67;102183.78;4988358;28;20034;-75
2022/09/22 11:52:55;;;;;;;5.30;4.05;;;;;;;17.93;51.25;102170.50;5028095;28;20513;-75
2022/09/22 11:55:55;;;;;;;6.82;4.70;;;;;;;17.94;50.06;102172.97;5024485;28;20037;-75
2022/09/22 11:58:24;;;;;;;7.47;5.28;;;;;;;17.65;49.44;102172.97;5041306;28;20036;-75
2022/09/22 12:01:12;;;;;;;6.25;4.95;;;;;;;17.83;51.29;102160.00;5045453;28;20025;-74
2022/09/22 12:03:43;;;;;;;6.72;4.60;;;;;;;18.03;49.46;102166.06;5043133;28;20025;-74
2022/09/22 12:06:17;;;;;;;8.25;4.10;;;;;;;18.10;47.53;102161.06;5036592;28;20488;-74